sensor_id;sensor_type;location;lat;lon;timestamp;P1;durP1;ratioP1;P2;durP2;ratioP2
10050;SDS011;5065;46.942;7.432;2023-07-31T00:00:45;0.80;;;0.80;;
10050;SDS011;5065;46.942;7.432;2023-07-31T00:03:13;0.80;;;0.80;;
10050;SDS011;5065;46.942;7.432;2023-07-31T00:05:40;1.45;;;1.10;;
10050;SDS011;5065;46.942;7.432;2023-07-31T00:08:07;0.90;;;0.73;;
10050;SDS011;5065;46.942;7.432;2023-07-31T00:10:34;1.30;;;0.75;;
10050;SDS011;5065;46.942;7.432;2023-07-31T00:13:01;1.30;;;0.80;;
10050;SDS011;5065;46.942;7.432;2023-07-31T00:15:30;0.70;;;0.65;;
10050;SDS011;5065;46.942;7.432;2023-07-31T00:17:57;0.70;;;0.70;;
10050;SDS011;5065;46.942;7.432;2023-07-31T00:20:26;1.10;;;0.90;;
10050;SDS011;5065;46.942;7.432;2023-07-31T00:22:53;0.98;;;0.60;;
10050;SDS011;5065;46.942;7.432;2023-07-31T00:25:20;0.82;;;0.75;;
10050;SDS011;5065;46.942;7.432;2023-07-31T00:27:47;1.00;;;0.90;;
10050;SDS011;5065;46.942;7.432;2023-07-31T00:30:14;1.00;;;0.77;;
10050;SDS011;5065;46.942;7.432;2023-07-31T00:32:43;0.85;;;0.80;;
10050;SDS011;5065;46.942;7.432;2023-07-31T00:35:10;0.90;;;0.70;;
10050;SDS011;5065;46.942;7.432;2023-07-31T00:37:37;0.73;;;0.73;;
10050;SDS011;5065;46.942;7.432;2023-07-31T00:40:05;0.93;;;0.73;;
10050;SDS011;5065;46.942;7.432;2023-07-31T00:42:33;0.83;;;0.70;;
10050;SDS011;5065;46.942;7.432;2023-07-31T00:45:00;0.70;;;0.70;;
10050;SDS011;5065;46.942;7.432;2023-07-31T00:47:27;1.63;;;0.90;;
10050;SDS011;5065;46.942;7.432;2023-07-31T00:49:56;0.90;;;0.80;;
10050;SDS011;5065;46.942;7.432;2023-07-31T00:52:23;1.48;;;0.90;;
10050;SDS011;5065;46.942;7.432;2023-07-31T00:54:51;0.68;;;0.68;;
10050;SDS011;5065;46.942;7.432;2023-07-31T00:57:18;0.68;;;0.68;;
10050;SDS011;5065;46.942;7.432;2023-07-31T00:59:45;0.73;;;0.65;;
10050;SDS011;5065;46.942;7.432;2023-07-31T01:02:12;0.88;;;0.88;;
10050;SDS011;5065;46.942;7.432;2023-07-31T01:04:41;0.98;;;0.80;;
10050;SDS011;5065;46.942;7.432;2023-07-31T01:07:11;1.27;;;0.60;;
10050;SDS011;5065;46.942;7.432;2023-07-31T01:09:47;1.38;;;1.08;;
10050;SDS011;5065;46.942;7.432;2023-07-31T01:12:22;1.00;;;0.75;;
10050;SDS011;5065;46.942;7.432;2023-07-31T01:15:01;1.00;;;0.90;;
10050;SDS011;5065;46.942;7.432;2023-07-31T01:17:29;1.10;;;0.88;;
10050;SDS011;5065;46.942;7.432;2023-07-31T01:19:58;1.60;;;0.60;;
10050;SDS011;5065;46.942;7.432;2023-07-31T01:22:37;1.65;;;0.98;;
10050;SDS011;5065;46.942;7.432;2023-07-31T01:25:22;0.82;;;0.70;;
10050;SDS011;5065;46.942;7.432;2023-07-31T01:28:13;0.80;;;0.80;;
10050;SDS011;5065;46.942;7.432;2023-07-31T01:30:47;0.80;;;0.70;;
10050;SDS011;5065;46.942;7.432;2023-07-31T01:33:15;1.10;;;0.80;;
10050;SDS011;5065;46.942;7.432;2023-07-31T01:35:43;0.80;;;0.80;;
10050;SDS011;5065;46.942;7.432;2023-07-31T01:38:12;1.75;;;0.80;;
10050;SDS011;5065;46.942;7.432;2023-07-31T01:40:41;0.95;;;0.90;;
10050;SDS011;5065;46.942;7.432;2023-07-31T01:43:08;0.90;;;0.80;;
10050;SDS011;5065;46.942;7.432;2023-07-31T01:45:37;1.08;;;0.90;;
10050;SDS011;5065;46.942;7.432;2023-07-31T01:48:04;1.10;;;0.80;;
10050;SDS011;5065;46.942;7.432;2023-07-31T01:50:31;1.20;;;0.90;;
10050;SDS011;5065;46.942;7.432;2023-07-31T01:52:58;1.20;;;0.70;;
10050;SDS011;5065;46.942;7.432;2023-07-31T01:55:25;0.77;;;0.63;;
10050;SDS011;5065;46.942;7.432;2023-07-31T01:57:52;0.70;;;0.70;;
10050;SDS011;5065;46.942;7.432;2023-07-31T02:00:19;1.20;;;1.00;;
10050;SDS011;5065;46.942;7.432;2023-07-31T02:02:48;1.08;;;0.80;;
10050;SDS011;5065;46.942;7.432;2023-07-31T02:05:15;0.70;;;0.70;;
10050;SDS011;5065;46.942;7.432;2023-07-31T02:07:42;1.02;;;0.90;;
10050;SDS011;5065;46.942;7.432;2023-07-31T02:10:09;0.88;;;0.80;;
10050;SDS011;5065;46.942;7.432;2023-07-31T02:12:37;0.80;;;0.70;;
10050;SDS011;5065;46.942;7.432;2023-07-31T02:15:04;1.60;;;0.70;;
10050;SDS011;5065;46.942;7.432;2023-07-31T02:17:32;0.93;;;0.75;;
10050;SDS011;5065;46.942;7.432;2023-07-31T02:20:00;1.10;;;0.75;;
10050;SDS011;5065;46.942;7.432;2023-07-31T02:22:27;1.05;;;0.77;;
10050;SDS011;5065;46.942;7.432;2023-07-31T02:24:55;1.00;;;0.90;;
10050;SDS011;5065;46.942;7.432;2023-07-31T02:27:22;1.17;;;0.98;;
10050;SDS011;5065;46.942;7.432;2023-07-31T02:29:52;1.25;;;0.82;;
10050;SDS011;5065;46.942;7.432;2023-07-31T02:32:19;0.90;;;0.80;;
10050;SDS011;5065;46.942;7.432;2023-07-31T02:34:46;1.67;;;0.80;;
10050;SDS011;5065;46.942;7.432;2023-07-31T02:37:15;1.00;;;0.90;;
10050;SDS011;5065;46.942;7.432;2023-07-31T02:39:42;0.90;;;0.80;;
10050;SDS011;5065;46.942;7.432;2023-07-31T02:42:09;0.85;;;0.80;;
10050;SDS011;5065;46.942;7.432;2023-07-31T02:44:36;1.02;;;0.80;;
10050;SDS011;5065;46.942;7.432;2023-07-31T02:47:04;0.85;;;0.75;;
10050;SDS011;5065;46.942;7.432;2023-07-31T02:49:31;1.00;;;0.70;;
10050;SDS011;5065;46.942;7.432;2023-07-31T02:51:58;1.10;;;0.95;;
10050;SDS011;5065;46.942;7.432;2023-07-31T02:54:27;1.00;;;0.90;;
10050;SDS011;5065;46.942;7.432;2023-07-31T02:56:54;0.85;;;0.68;;
10050;SDS011;5065;46.942;7.432;2023-07-31T02:59:21;1.55;;;1.00;;
10050;SDS011;5065;46.942;7.432;2023-07-31T03:01:48;2.05;;;0.77;;
10050;SDS011;5065;46.942;7.432;2023-07-31T03:04:15;1.15;;;0.82;;
10050;SDS011;5065;46.942;7.432;2023-07-31T03:06:42;1.30;;;0.60;;
10050;SDS011;5065;46.942;7.432;2023-07-31T03:09:09;0.90;;;0.77;;
10050;SDS011;5065;46.942;7.432;2023-07-31T03:11:38;1.13;;;0.93;;
10050;SDS011;5065;46.942;7.432;2023-07-31T03:14:05;1.88;;;0.90;;
10050;SDS011;5065;46.942;7.432;2023-07-31T03:16:32;0.90;;;0.80;;
10050;SDS011;5065;46.942;7.432;2023-07-31T03:18:59;1.38;;;0.90;;
10050;SDS011;5065;46.942;7.432;2023-07-31T03:21:26;1.00;;;0.80;;
10050;SDS011;5065;46.942;7.432;2023-07-31T03:23:54;0.68;;;0.63;;
10050;SDS011;5065;46.942;7.432;2023-07-31T03:26:21;1.58;;;0.88;;
10050;SDS011;5065;46.942;7.432;2023-07-31T03:28:49;0.80;;;0.80;;
10050;SDS011;5065;46.942;7.432;2023-07-31T03:31:16;1.45;;;0.90;;
10050;SDS011;5065;46.942;7.432;2023-07-31T03:33:43;0.82;;;0.75;;
10050;SDS011;5065;46.942;7.432;2023-07-31T03:36:11;0.80;;;0.77;;
10050;SDS011;5065;46.942;7.432;2023-07-31T03:38:41;2.80;;;1.10;;
10050;SDS011;5065;46.942;7.432;2023-07-31T03:41:08;1.10;;;0.82;;
10050;SDS011;5065;46.942;7.432;2023-07-31T03:43:35;1.15;;;0.80;;
10050;SDS011;5065;46.942;7.432;2023-07-31T03:46:04;1.30;;;0.70;;
10050;SDS011;5065;46.942;7.432;2023-07-31T03:48:31;1.00;;;0.80;;
10050;SDS011;5065;46.942;7.432;2023-07-31T03:50:58;1.23;;;1.00;;
10050;SDS011;5065;46.942;7.432;2023-07-31T03:53:25;1.20;;;1.10;;
10050;SDS011;5065;46.942;7.432;2023-07-31T03:55:52;1.27;;;0.87;;
10050;SDS011;5065;46.942;7.432;2023-07-31T03:58:19;1.10;;;1.00;;
10050;SDS011;5065;46.942;7.432;2023-07-31T04:00:47;0.75;;;0.70;;
10050;SDS011;5065;46.942;7.432;2023-07-31T04:03:15;1.60;;;1.00;;
10050;SDS011;5065;46.942;7.432;2023-07-31T04:05:42;0.50;;;0.50;;
10050;SDS011;5065;46.942;7.432;2023-07-31T04:08:09;1.05;;;0.95;;
10050;SDS011;5065;46.942;7.432;2023-07-31T04:10:37;1.15;;;0.80;;
10050;SDS011;5065;46.942;7.432;2023-07-31T04:13:04;0.90;;;0.82;;
10050;SDS011;5065;46.942;7.432;2023-07-31T04:15:31;1.37;;;1.00;;
10050;SDS011;5065;46.942;7.432;2023-07-31T04:17:58;0.90;;;0.73;;
10050;SDS011;5065;46.942;7.432;2023-07-31T04:20:26;1.10;;;0.80;;
10050;SDS011;5065;46.942;7.432;2023-07-31T04:22:54;1.17;;;1.08;;
10050;SDS011;5065;46.942;7.432;2023-07-31T04:27:48;0.60;;;0.55;;
10050;SDS011;5065;46.942;7.432;2023-07-31T04:30:15;0.68;;;0.68;;
10050;SDS011;5065;46.942;7.432;2023-07-31T04:32:42;0.80;;;0.67;;
10050;SDS011;5065;46.942;7.432;2023-07-31T04:35:10;2.00;;;0.63;;
10050;SDS011;5065;46.942;7.432;2023-07-31T04:37:39;0.97;;;0.70;;
10050;SDS011;5065;46.942;7.432;2023-07-31T04:40:10;0.50;;;0.50;;
10050;SDS011;5065;46.942;7.432;2023-07-31T04:42:37;0.57;;;0.57;;
10050;SDS011;5065;46.942;7.432;2023-07-31T04:45:05;0.83;;;0.70;;
10050;SDS011;5065;46.942;7.432;2023-07-31T04:47:32;0.37;;;0.37;;
10050;SDS011;5065;46.942;7.432;2023-07-31T04:49:59;1.53;;;0.87;;
10050;SDS011;5065;46.942;7.432;2023-07-31T04:52:26;1.43;;;1.10;;
10050;SDS011;5065;46.942;7.432;2023-07-31T04:54:55;0.50;;;0.50;;
10050;SDS011;5065;46.942;7.432;2023-07-31T04:57:22;0.63;;;0.63;;
10050;SDS011;5065;46.942;7.432;2023-07-31T04:59:52;0.60;;;0.60;;
10050;SDS011;5065;46.942;7.432;2023-07-31T05:02:19;1.07;;;1.00;;
10050;SDS011;5065;46.942;7.432;2023-07-31T05:04:46;0.87;;;0.70;;
10050;SDS011;5065;46.942;7.432;2023-07-31T05:07:14;1.10;;;0.90;;
10050;SDS011;5065;46.942;7.432;2023-07-31T05:09:42;0.67;;;0.67;;
10050;SDS011;5065;46.942;7.432;2023-07-31T05:12:10;1.63;;;1.20;;
10050;SDS011;5065;46.942;7.432;2023-07-31T05:14:38;0.63;;;0.60;;
10050;SDS011;5065;46.942;7.432;2023-07-31T05:17:05;1.00;;;0.90;;
10050;SDS011;5065;46.942;7.432;2023-07-31T05:19:32;2.27;;;1.10;;
10050;SDS011;5065;46.942;7.432;2023-07-31T05:21:59;1.97;;;0.60;;
10050;SDS011;5065;46.942;7.432;2023-07-31T05:24:26;1.07;;;0.90;;
10050;SDS011;5065;46.942;7.432;2023-07-31T05:26:53;1.00;;;0.50;;
10050;SDS011;5065;46.942;7.432;2023-07-31T05:29:22;0.93;;;0.70;;
10050;SDS011;5065;46.942;7.432;2023-07-31T05:31:49;0.60;;;0.60;;
10050;SDS011;5065;46.942;7.432;2023-07-31T05:34:16;0.50;;;0.50;;
10050;SDS011;5065;46.942;7.432;2023-07-31T05:36:43;0.73;;;0.57;;
10050;SDS011;5065;46.942;7.432;2023-07-31T05:39:10;0.90;;;0.70;;
10050;SDS011;5065;46.942;7.432;2023-07-31T05:41:39;0.60;;;0.60;;
10050;SDS011;5065;46.942;7.432;2023-07-31T05:44:06;1.07;;;0.97;;
10050;SDS011;5065;46.942;7.432;2023-07-31T05:46:34;0.73;;;0.73;;
10050;SDS011;5065;46.942;7.432;2023-07-31T05:49:02;1.03;;;0.90;;
10050;SDS011;5065;46.942;7.432;2023-07-31T05:51:29;1.57;;;0.57;;
10050;SDS011;5065;46.942;7.432;2023-07-31T05:53:56;0.80;;;0.70;;
10050;SDS011;5065;46.942;7.432;2023-07-31T05:56:23;0.47;;;0.43;;
10050;SDS011;5065;46.942;7.432;2023-07-31T05:58:52;0.80;;;0.80;;
10050;SDS011;5065;46.942;7.432;2023-07-31T06:01:19;0.93;;;0.70;;
10050;SDS011;5065;46.942;7.432;2023-07-31T06:03:48;0.80;;;0.80;;
10050;SDS011;5065;46.942;7.432;2023-07-31T06:06:15;0.70;;;0.60;;
10050;SDS011;5065;46.942;7.432;2023-07-31T06:08:42;3.40;;;1.00;;
10050;SDS011;5065;46.942;7.432;2023-07-31T06:11:09;0.93;;;0.67;;
10050;SDS011;5065;46.942;7.432;2023-07-31T06:13:36;1.47;;;1.00;;
10050;SDS011;5065;46.942;7.432;2023-07-31T06:16:04;0.80;;;0.80;;
10050;SDS011;5065;46.942;7.432;2023-07-31T06:18:31;1.23;;;0.83;;
10050;SDS011;5065;46.942;7.432;2023-07-31T06:21:00;0.90;;;0.60;;
10050;SDS011;5065;46.942;7.432;2023-07-31T06:23:27;1.63;;;0.90;;
10050;SDS011;5065;46.942;7.432;2023-07-31T06:25:54;1.13;;;0.90;;
10050;SDS011;5065;46.942;7.432;2023-07-31T06:28:23;0.82;;;0.77;;
10050;SDS011;5065;46.942;7.432;2023-07-31T06:30:55;0.68;;;0.68;;
10050;SDS011;5065;46.942;7.432;2023-07-31T06:33:22;0.73;;;0.65;;
10050;SDS011;5065;46.942;7.432;2023-07-31T06:35:49;0.80;;;0.80;;
10050;SDS011;5065;46.942;7.432;2023-07-31T06:38:22;0.50;;;0.50;;
10050;SDS011;5065;46.942;7.432;2023-07-31T06:40:52;0.93;;;0.70;;
10050;SDS011;5065;46.942;7.432;2023-07-31T06:43:19;0.63;;;0.63;;
10050;SDS011;5065;46.942;7.432;2023-07-31T06:45:46;0.98;;;0.88;;
10050;SDS011;5065;46.942;7.432;2023-07-31T06:48:15;1.35;;;0.60;;
10050;SDS011;5065;46.942;7.432;2023-07-31T06:50:42;1.55;;;0.98;;
10050;SDS011;5065;46.942;7.432;2023-07-31T06:53:10;1.33;;;1.02;;
10050;SDS011;5065;46.942;7.432;2023-07-31T06:55:38;1.23;;;0.77;;
10050;SDS011;5065;46.942;7.432;2023-07-31T06:58:07;0.60;;;0.55;;
10050;SDS011;5065;46.942;7.432;2023-07-31T07:00:34;0.50;;;0.50;;
10050;SDS011;5065;46.942;7.432;2023-07-31T07:03:03;0.68;;;0.60;;
10050;SDS011;5065;46.942;7.432;2023-07-31T07:05:32;0.70;;;0.70;;
10050;SDS011;5065;46.942;7.432;2023-07-31T07:08:00;0.98;;;0.85;;
10050;SDS011;5065;46.942;7.432;2023-07-31T07:10:27;1.77;;;1.42;;
10050;SDS011;5065;46.942;7.432;2023-07-31T07:12:58;1.33;;;0.95;;
10050;SDS011;5065;46.942;7.432;2023-07-31T07:15:28;1.17;;;0.95;;
10050;SDS011;5065;46.942;7.432;2023-07-31T07:18:00;1.33;;;0.82;;
10050;SDS011;5065;46.942;7.432;2023-07-31T07:42:47;0.82;;;0.70;;
10050;SDS011;5065;46.942;7.432;2023-07-31T07:45:17;0.95;;;0.65;;
10050;SDS011;5065;46.942;7.432;2023-07-31T07:47:49;1.65;;;0.68;;
10050;SDS011;5065;46.942;7.432;2023-07-31T07:50:18;1.10;;;0.60;;
10050;SDS011;5065;46.942;7.432;2023-07-31T07:52:50;0.70;;;0.52;;
10050;SDS011;5065;46.942;7.432;2023-07-31T07:55:19;0.50;;;0.50;;
10050;SDS011;5065;46.942;7.432;2023-07-31T07:57:47;0.73;;;0.63;;
10050;SDS011;5065;46.942;7.432;2023-07-31T08:00:17;1.00;;;0.60;;
10050;SDS011;5065;46.942;7.432;2023-07-31T08:02:44;0.70;;;0.70;;
10050;SDS011;5065;46.942;7.432;2023-07-31T12:17:41;1.17;;;0.68;;
10050;SDS011;5065;46.942;7.432;2023-07-31T12:20:10;0.47;;;0.47;;
10050;SDS011;5065;46.942;7.432;2023-07-31T12:22:37;0.32;;;0.32;;
10050;SDS011;5065;46.942;7.432;2023-07-31T12:25:05;1.05;;;0.60;;
10050;SDS011;5065;46.942;7.432;2023-07-31T12:27:33;0.40;;;0.40;;
10050;SDS011;5065;46.942;7.432;2023-07-31T12:30:00;0.80;;;0.47;;
10050;SDS011;5065;46.942;7.432;2023-07-31T12:32:29;0.50;;;0.40;;
10050;SDS011;5065;46.942;7.432;2023-07-31T12:34:59;0.98;;;0.70;;
10050;SDS011;5065;46.942;7.432;2023-07-31T12:37:28;1.20;;;0.60;;
10050;SDS011;5065;46.942;7.432;2023-07-31T12:39:57;0.47;;;0.47;;
10050;SDS011;5065;46.942;7.432;2023-07-31T12:42:30;2.05;;;0.57;;
10050;SDS011;5065;46.942;7.432;2023-07-31T12:44:57;2.03;;;0.70;;
10050;SDS011;5065;46.942;7.432;2023-07-31T12:47:26;0.90;;;0.57;;
10050;SDS011;5065;46.942;7.432;2023-07-31T12:49:56;0.60;;;0.52;;
10050;SDS011;5065;46.942;7.432;2023-07-31T12:52:23;1.17;;;0.80;;
10050;SDS011;5065;46.942;7.432;2023-07-31T12:54:50;0.90;;;0.50;;
10050;SDS011;5065;46.942;7.432;2023-07-31T12:57:18;0.88;;;0.60;;
10050;SDS011;5065;46.942;7.432;2023-07-31T12:59:45;0.73;;;0.57;;
10050;SDS011;5065;46.942;7.432;2023-07-31T13:02:12;1.33;;;0.60;;
10050;SDS011;5065;46.942;7.432;2023-07-31T13:04:40;0.47;;;0.43;;
10050;SDS011;5065;46.942;7.432;2023-07-31T13:07:08;0.95;;;0.40;;
10050;SDS011;5065;46.942;7.432;2023-07-31T13:09:35;1.38;;;0.80;;
10050;SDS011;5065;46.942;7.432;2023-07-31T13:12:02;0.75;;;0.52;;
10050;SDS011;5065;46.942;7.432;2023-07-31T13:14:29;1.60;;;0.77;;
10050;SDS011;5065;46.942;7.432;2023-07-31T13:16:57;1.42;;;0.93;;
10050;SDS011;5065;46.942;7.432;2023-07-31T13:19:24;1.55;;;0.90;;
10050;SDS011;5065;46.942;7.432;2023-07-31T13:21:53;0.98;;;0.82;;
10050;SDS011;5065;46.942;7.432;2023-07-31T13:24:20;1.02;;;0.60;;
10050;SDS011;5065;46.942;7.432;2023-07-31T13:26:47;0.50;;;0.50;;
10050;SDS011;5065;46.942;7.432;2023-07-31T13:29:16;0.95;;;0.57;;
10050;SDS011;5065;46.942;7.432;2023-07-31T13:31:44;0.32;;;0.32;;
10050;SDS011;5065;46.942;7.432;2023-07-31T13:34:11;0.80;;;0.57;;
10050;SDS011;5065;46.942;7.432;2023-07-31T13:36:38;1.17;;;0.68;;
10050;SDS011;5065;46.942;7.432;2023-07-31T13:39:09;2.53;;;0.80;;
10050;SDS011;5065;46.942;7.432;2023-07-31T13:41:36;0.95;;;0.52;;
10050;SDS011;5065;46.942;7.432;2023-07-31T13:44:03;0.55;;;0.50;;
10050;SDS011;5065;46.942;7.432;2023-07-31T13:46:31;0.85;;;0.68;;
10050;SDS011;5065;46.942;7.432;2023-07-31T13:48:58;0.40;;;0.40;;
10050;SDS011;5065;46.942;7.432;2023-07-31T13:51:26;0.55;;;0.50;;
10050;SDS011;5065;46.942;7.432;2023-07-31T13:53:53;2.95;;;0.63;;
10050;SDS011;5065;46.942;7.432;2023-07-31T13:56:22;0.82;;;0.70;;
10050;SDS011;5065;46.942;7.432;2023-07-31T13:58:49;1.15;;;0.73;;
10050;SDS011;5065;46.942;7.432;2023-07-31T14:01:16;0.63;;;0.63;;
10050;SDS011;5065;46.942;7.432;2023-07-31T14:03:44;0.68;;;0.60;;
10050;SDS011;5065;46.942;7.432;2023-07-31T14:06:11;1.05;;;0.82;;
10050;SDS011;5065;46.942;7.432;2023-07-31T14:08:39;0.88;;;0.73;;
10050;SDS011;5065;46.942;7.432;2023-07-31T14:11:06;0.70;;;0.57;;
10050;SDS011;5065;46.942;7.432;2023-07-31T14:13:34;0.85;;;0.68;;
10050;SDS011;5065;46.942;7.432;2023-07-31T14:16:02;0.52;;;0.52;;
10050;SDS011;5065;46.942;7.432;2023-07-31T14:18:29;1.02;;;0.80;;
10050;SDS011;5065;46.942;7.432;2023-07-31T14:20:56;0.88;;;0.60;;
10050;SDS011;5065;46.942;7.432;2023-07-31T14:23:23;1.23;;;0.90;;
10050;SDS011;5065;46.942;7.432;2023-07-31T14:25:51;1.52;;;0.93;;
10050;SDS011;5065;46.942;7.432;2023-07-31T14:28:18;1.05;;;0.50;;
10050;SDS011;5065;46.942;7.432;2023-07-31T14:30:46;0.90;;;0.80;;
10050;SDS011;5065;46.942;7.432;2023-07-31T14:33:13;1.90;;;1.35;;
10050;SDS011;5065;46.942;7.432;2023-07-31T14:35:41;1.67;;;1.30;;
10050;SDS011;5065;46.942;7.432;2023-07-31T14:38:08;2.40;;;1.20;;
10050;SDS011;5065;46.942;7.432;2023-07-31T14:40:35;1.73;;;0.70;;
10050;SDS011;5065;46.942;7.432;2023-07-31T14:43:03;1.30;;;0.75;;
10050;SDS011;5065;46.942;7.432;2023-07-31T14:45:30;2.47;;;1.02;;
10050;SDS011;5065;46.942;7.432;2023-07-31T14:47:59;1.70;;;1.25;;
10050;SDS011;5065;46.942;7.432;2023-07-31T14:50:26;1.02;;;0.73;;
10050;SDS011;5065;46.942;7.432;2023-07-31T14:52:53;1.60;;;1.27;;
10050;SDS011;5065;46.942;7.432;2023-07-31T14:55:21;2.15;;;1.48;;
10050;SDS011;5065;46.942;7.432;2023-07-31T14:57:48;0.82;;;0.80;;
10050;SDS011;5065;46.942;7.432;2023-07-31T15:00:15;2.58;;;1.17;;
10050;SDS011;5065;46.942;7.432;2023-07-31T15:02:42;1.73;;;1.15;;
10050;SDS011;5065;46.942;7.432;2023-07-31T15:05:11;0.70;;;0.70;;
10050;SDS011;5065;46.942;7.432;2023-07-31T15:07:38;2.08;;;1.13;;
10050;SDS011;5065;46.942;7.432;2023-07-31T15:10:06;1.23;;;0.90;;
10050;SDS011;5065;46.942;7.432;2023-07-31T15:12:34;1.65;;;0.77;;
10050;SDS011;5065;46.942;7.432;2023-07-31T15:15:03;1.23;;;0.82;;
10050;SDS011;5065;46.942;7.432;2023-07-31T15:17:31;0.80;;;0.80;;
10050;SDS011;5065;46.942;7.432;2023-07-31T15:19:58;1.30;;;0.95;;
10050;SDS011;5065;46.942;7.432;2023-07-31T15:22:27;2.85;;;1.50;;
10050;SDS011;5065;46.942;7.432;2023-07-31T15:24:55;2.13;;;1.58;;
10050;SDS011;5065;46.942;7.432;2023-07-31T15:27:23;1.50;;;1.40;;
10050;SDS011;5065;46.942;7.432;2023-07-31T15:29:50;1.27;;;0.75;;
10050;SDS011;5065;46.942;7.432;2023-07-31T15:32:22;1.20;;;0.70;;
10050;SDS011;5065;46.942;7.432;2023-07-31T15:34:57;1.02;;;0.77;;
10050;SDS011;5065;46.942;7.432;2023-07-31T15:37:31;1.23;;;1.13;;
10050;SDS011;5065;46.942;7.432;2023-07-31T15:40:02;1.23;;;0.98;;
10050;SDS011;5065;46.942;7.432;2023-07-31T15:42:43;1.77;;;0.98;;
10050;SDS011;5065;46.942;7.432;2023-07-31T15:45:12;1.13;;;0.82;;
10050;SDS011;5065;46.942;7.432;2023-07-31T15:47:44;2.13;;;1.38;;
10050;SDS011;5065;46.942;7.432;2023-07-31T15:50:11;1.30;;;1.02;;
10050;SDS011;5065;46.942;7.432;2023-07-31T15:52:44;1.83;;;0.95;;
10050;SDS011;5065;46.942;7.432;2023-07-31T15:55:12;1.33;;;0.73;;
10050;SDS011;5065;46.942;7.432;2023-07-31T15:57:43;1.85;;;1.40;;
10050;SDS011;5065;46.942;7.432;2023-07-31T16:00:11;0.80;;;0.80;;
10050;SDS011;5065;46.942;7.432;2023-07-31T16:02:39;1.23;;;0.88;;
10050;SDS011;5065;46.942;7.432;2023-07-31T16:05:10;1.08;;;0.98;;
10050;SDS011;5065;46.942;7.432;2023-07-31T16:07:41;1.48;;;1.08;;
10050;SDS011;5065;46.942;7.432;2023-07-31T16:10:14;1.27;;;0.90;;
10050;SDS011;5065;46.942;7.432;2023-07-31T16:12:43;1.05;;;0.82;;
10050;SDS011;5065;46.942;7.432;2023-07-31T16:15:14;1.83;;;1.10;;
10050;SDS011;5065;46.942;7.432;2023-07-31T16:17:44;0.90;;;0.70;;
10050;SDS011;5065;46.942;7.432;2023-07-31T16:20:16;1.73;;;0.90;;
10050;SDS011;5065;46.942;7.432;2023-07-31T16:22:49;1.10;;;1.00;;
10050;SDS011;5065;46.942;7.432;2023-07-31T16:25:27;2.58;;;1.40;;
10050;SDS011;5065;46.942;7.432;2023-07-31T16:28:00;1.15;;;0.90;;
10050;SDS011;5065;46.942;7.432;2023-07-31T16:30:30;1.15;;;0.90;;
10050;SDS011;5065;46.942;7.432;2023-07-31T16:33:20;2.22;;;1.25;;
10050;SDS011;5065;46.942;7.432;2023-07-31T16:35:52;1.20;;;0.90;;
10050;SDS011;5065;46.942;7.432;2023-07-31T16:38:20;0.88;;;0.82;;
10050;SDS011;5065;46.942;7.432;2023-07-31T16:40:48;1.00;;;0.88;;
10050;SDS011;5065;46.942;7.432;2023-07-31T16:43:16;1.00;;;0.82;;
10050;SDS011;5065;46.942;7.432;2023-07-31T16:45:44;1.80;;;1.05;;
10050;SDS011;5065;46.942;7.432;2023-07-31T16:48:11;1.52;;;1.00;;
10050;SDS011;5065;46.942;7.432;2023-07-31T16:50:38;1.70;;;1.23;;
10050;SDS011;5065;46.942;7.432;2023-07-31T16:53:17;2.03;;;0.90;;
10050;SDS011;5065;46.942;7.432;2023-07-31T16:55:48;0.93;;;0.80;;
10050;SDS011;5065;46.942;7.432;2023-07-31T16:58:19;1.02;;;0.95;;
10050;SDS011;5065;46.942;7.432;2023-07-31T17:00:46;0.70;;;0.63;;
10050;SDS011;5065;46.942;7.432;2023-07-31T17:03:14;0.75;;;0.75;;
10050;SDS011;5065;46.942;7.432;2023-07-31T17:05:41;1.95;;;1.13;;
10050;SDS011;5065;46.942;7.432;2023-07-31T17:08:08;0.70;;;0.70;;
10050;SDS011;5065;46.942;7.432;2023-07-31T17:10:44;1.67;;;1.00;;
10050;SDS011;5065;46.942;7.432;2023-07-31T17:13:13;1.55;;;1.17;;
10050;SDS011;5065;46.942;7.432;2023-07-31T17:15:40;1.02;;;0.90;;
10050;SDS011;5065;46.942;7.432;2023-07-31T17:18:08;1.27;;;1.10;;
10050;SDS011;5065;46.942;7.432;2023-07-31T17:20:35;1.23;;;1.13;;
10050;SDS011;5065;46.942;7.432;2023-07-31T17:23:03;1.55;;;0.98;;
10050;SDS011;5065;46.942;7.432;2023-07-31T17:25:39;1.67;;;1.23;;
10050;SDS011;5065;46.942;7.432;2023-07-31T17:28:11;2.00;;;1.50;;
10050;SDS011;5065;46.942;7.432;2023-07-31T17:30:45;1.05;;;0.90;;
10050;SDS011;5065;46.942;7.432;2023-07-31T17:33:14;1.15;;;1.00;;
10050;SDS011;5065;46.942;7.432;2023-07-31T17:35:44;0.73;;;0.70;;
10050;SDS011;5065;46.942;7.432;2023-07-31T17:38:12;2.92;;;1.33;;
10050;SDS011;5065;46.942;7.432;2023-07-31T17:40:39;0.95;;;0.80;;
10050;SDS011;5065;46.942;7.432;2023-07-31T17:43:09;0.80;;;0.80;;
10050;SDS011;5065;46.942;7.432;2023-07-31T17:45:44;1.20;;;0.90;;
10050;SDS011;5065;46.942;7.432;2023-07-31T17:48:13;2.28;;;1.17;;
10050;SDS011;5065;46.942;7.432;2023-07-31T17:50:48;1.35;;;1.10;;
10050;SDS011;5065;46.942;7.432;2023-07-31T17:53:20;1.35;;;1.08;;
10050;SDS011;5065;46.942;7.432;2023-07-31T17:55:48;3.17;;;1.20;;
10050;SDS011;5065;46.942;7.432;2023-07-31T17:58:18;2.42;;;1.05;;
10050;SDS011;5065;46.942;7.432;2023-07-31T18:00:48;2.22;;;0.98;;
10050;SDS011;5065;46.942;7.432;2023-07-31T18:03:17;3.33;;;1.33;;
10050;SDS011;5065;46.942;7.432;2023-07-31T18:05:46;0.75;;;0.75;;
10050;SDS011;5065;46.942;7.432;2023-07-31T18:08:13;2.47;;;1.67;;
10050;SDS011;5065;46.942;7.432;2023-07-31T18:10:43;2.33;;;1.05;;
10050;SDS011;5065;46.942;7.432;2023-07-31T18:13:11;1.50;;;1.05;;
10050;SDS011;5065;46.942;7.432;2023-07-31T18:15:42;1.38;;;1.00;;
10050;SDS011;5065;46.942;7.432;2023-07-31T18:18:13;1.48;;;1.00;;
10050;SDS011;5065;46.942;7.432;2023-07-31T18:20:45;1.63;;;1.20;;
10050;SDS011;5065;46.942;7.432;2023-07-31T18:23:15;1.00;;;0.90;;
10050;SDS011;5065;46.942;7.432;2023-07-31T18:25:43;0.80;;;0.80;;
10050;SDS011;5065;46.942;7.432;2023-07-31T18:28:10;1.40;;;1.02;;
10050;SDS011;5065;46.942;7.432;2023-07-31T18:30:40;1.83;;;1.05;;
10050;SDS011;5065;46.942;7.432;2023-07-31T18:33:17;1.38;;;1.25;;
10050;SDS011;5065;46.942;7.432;2023-07-31T18:35:45;1.27;;;1.00;;
10050;SDS011;5065;46.942;7.432;2023-07-31T18:38:12;15.88;;;3.10;;
10050;SDS011;5065;46.942;7.432;2023-07-31T18:40:39;1.33;;;1.20;;
10050;SDS011;5065;46.942;7.432;2023-07-31T18:43:06;2.00;;;1.75;;
10050;SDS011;5065;46.942;7.432;2023-07-31T18:45:33;2.40;;;1.80;;
10050;SDS011;5065;46.942;7.432;2023-07-31T18:48:00;2.42;;;1.90;;
10050;SDS011;5065;46.942;7.432;2023-07-31T18:50:29;2.53;;;1.65;;
10050;SDS011;5065;46.942;7.432;2023-07-31T18:52:56;3.88;;;2.05;;
10050;SDS011;5065;46.942;7.432;2023-07-31T18:55:23;3.47;;;1.75;;
10050;SDS011;5065;46.942;7.432;2023-07-31T18:57:52;1.50;;;1.40;;
10050;SDS011;5065;46.942;7.432;2023-07-31T19:00:20;2.55;;;1.95;;
10050;SDS011;5065;46.942;7.432;2023-07-31T19:02:47;2.25;;;1.50;;
10050;SDS011;5065;46.942;7.432;2023-07-31T19:05:14;2.40;;;1.75;;
10050;SDS011;5065;46.942;7.432;2023-07-31T19:07:47;3.60;;;1.90;;
10050;SDS011;5065;46.942;7.432;2023-07-31T19:10:14;2.35;;;1.67;;
10050;SDS011;5065;46.942;7.432;2023-07-31T19:12:43;2.17;;;1.65;;
10050;SDS011;5065;46.942;7.432;2023-07-31T19:15:11;1.90;;;1.60;;
10050;SDS011;5065;46.942;7.432;2023-07-31T19:17:38;4.88;;;2.45;;
10050;SDS011;5065;46.942;7.432;2023-07-31T19:20:11;7.25;;;3.17;;
10050;SDS011;5065;46.942;7.432;2023-07-31T19:22:39;4.50;;;2.55;;
10050;SDS011;5065;46.942;7.432;2023-07-31T19:25:12;10.98;;;3.53;;
10050;SDS011;5065;46.942;7.432;2023-07-31T19:27:42;7.38;;;2.90;;
10050;SDS011;5065;46.942;7.432;2023-07-31T19:30:14;3.50;;;2.35;;
10050;SDS011;5065;46.942;7.432;2023-07-31T19:32:41;4.28;;;2.60;;
10050;SDS011;5065;46.942;7.432;2023-07-31T19:35:11;4.25;;;3.35;;
10050;SDS011;5065;46.942;7.432;2023-07-31T19:37:39;5.55;;;4.43;;
10050;SDS011;5065;46.942;7.432;2023-07-31T19:40:10;9.27;;;3.72;;
10050;SDS011;5065;46.942;7.432;2023-07-31T19:42:46;7.05;;;2.92;;
10050;SDS011;5065;46.942;7.432;2023-07-31T19:45:17;2.67;;;2.40;;